Time;durP1;ratioP1;P1;durP2;ratioP2;P2;SDS_P1;SDS_P2;PMS_P1;PMS_P2;Temp;Humidity;BMP_temperature;BMP_pressure;BME280_temperature;BME280_humidity;BME280_pressure;Samples;Min_cycle;Max_cycle;Signal;HPM_P1;HPM_P2
2022/05/03 00:00:18;;;;;;;7.95;7.10;;;6.90;99.90;;;;;;5095893;28;20044;-57
2022/05/03 00:02:44;;;;;;;7.40;6.65;;;6.80;99.90;;;;;;5059235;28;20125;-59
2022/05/03 00:05:37;;;;;;;11.65;8.02;;;6.80;99.90;;;;;;5093059;28;20065;-58
2022/05/03 00:08:27;;;;;;;9.38;7.97;;;6.80;99.90;;;;;;5092695;28;20058;-58
2022/05/03 00:11:12;;;;;;;9.43;7.95;;;6.80;99.90;;;;;;5091249;28;20051;-58
2022/05/03 00:14:07;;;;;;;9.38;8.18;;;6.80;99.90;;;;;;5090421;28;20051;-57
2022/05/03 00:16:35;;;;;;;11.50;8.68;;;6.70;99.90;;;;;;5089612;28;20048;-55
2022/05/03 00:19:05;;;;;;;8.98;7.72;;;6.70;99.90;;;;;;5092118;28;20467;-57
2022/05/03 00:21:36;;;;;;;8.93;8.02;;;6.70;99.90;;;;;;5072814;28;20055;-57
2022/05/03 00:24:04;;;;;;;8.77;7.85;;;6.60;99.90;;;;;;5089476;28;20052;-57
2022/05/03 00:26:31;;;;;;;8.73;7.50;;;6.60;99.90;;;;;;5089924;28;20068;-57
2022/05/03 00:28:59;;;;;;;8.88;7.55;;;6.60;99.90;;;;;;5080642;28;20048;-57
2022/05/03 00:31:26;;;;;;;9.10;7.13;;;6.60;99.90;;;;;;5085734;28;20091;-58
2022/05/03 00:33:57;;;;;;;8.57;7.05;;;6.60;99.90;;;;;;5087026;28;20115;-57
2022/05/03 00:36:24;;;;;;;9.40;7.80;;;6.50;99.90;;;;;;5096350;28;20043;-57
2022/05/03 00:38:50;;;;;;;10.20;7.53;;;6.50;99.90;;;;;;5077236;28;20546;-57
2022/05/03 00:41:46;;;;;;;13.07;8.38;;;6.50;99.90;;;;;;5095480;28;20036;-58
2022/05/03 00:47:11;;;;;;;10.63;7.97;;;6.50;99.90;;;;;;5096535;28;20032;-56
2022/05/03 00:50:06;;;;;;;9.43;7.65;;;6.40;99.90;;;;;;5092793;28;20466;-57
2022/05/03 00:52:53;;;;;;;9.68;7.85;;;6.40;99.90;;;;;;5095946;28;20070;-57
2022/05/03 00:55:47;;;;;;;9.80;7.75;;;6.40;99.90;;;;;;5091776;28;20044;-56
2022/05/03 00:58:38;;;;;;;9.88;7.90;;;6.40;99.90;;;;;;5096448;28;20032;-57
2022/05/03 01:01:19;;;;;;;9.30;7.40;;;6.30;99.90;;;;;;5097270;28;20114;-57
2022/05/03 01:04:08;;;;;;;10.40;7.68;;;6.30;99.90;;;;;;5095150;28;20119;-58
2022/05/03 01:06:54;;;;;;;13.18;8.68;;;6.30;99.90;;;;;;5095160;28;20200;-58
2022/05/03 01:09:37;;;;;;;11.05;8.88;;;6.30;99.90;;;;;;5095862;28;20145;-57
2022/05/03 01:12:21;;;;;;;10.02;8.98;;;6.30;99.90;;;;;;5092700;28;20044;-57
2022/05/03 01:14:53;;;;;;;11.25;8.98;;;6.30;99.90;;;;;;5080622;28;20088;-58
2022/05/03 01:17:42;;;;;;;11.05;8.27;;;6.30;99.90;;;;;;5093856;28;20036;-58
2022/05/03 01:20:10;;;;;;;9.20;7.78;;;6.30;99.90;;;;;;5096655;28;20052;-57
2022/05/03 01:22:48;;;;;;;11.10;8.60;;;6.30;99.90;;;;;;5096426;28;20048;-57
2022/05/03 01:25:40;;;;;;;8.98;8.00;;;6.20;99.90;;;;;;5097504;28;20490;-56
2022/05/03 01:28:25;;;;;;;11.55;9.73;;;6.20;99.90;;;;;;5078355;28;20189;-57
2022/05/03 01:30:52;;;;;;;10.68;9.48;;;6.20;99.90;;;;;;5095607;28;20047;-56
2022/05/03 01:33:33;;;;;;;13.93;9.90;;;6.20;99.90;;;;;;5097164;28;20065;-57
2022/05/03 01:36:04;;;;;;;8.77;7.88;;;6.20;99.90;;;;;;5095950;28;20259;-57
2022/05/03 01:38:39;;;;;;;10.35;8.80;;;6.20;99.90;;;;;;5095966;28;20040;-56
2022/05/03 01:41:31;;;;;;;9.57;8.68;;;6.20;99.90;;;;;;5085272;28;20070;-57
2022/05/03 01:44:11;;;;;;;9.32;8.05;;;6.20;99.90;;;;;;5095300;28;20480;-57
2022/05/03 01:46:38;;;;;;;10.00;7.72;;;6.20;99.90;;;;;;5085973;28;20048;-56
2022/05/03 01:52:33;;;;;;;10.85;9.55;;;6.10;99.90;;;;;;5093867;28;20043;-56
2022/05/03 01:55:40;;;;;;;10.73;9.63;;;6.10;99.90;;;;;;5096298;28;20040;-56
2022/05/03 01:58:37;;;;;;;10.90;9.80;;;6.10;99.90;;;;;;5083632;28;20048;-58
2022/05/03 02:01:13;;;;;;;11.07;8.98;;;6.10;99.90;;;;;;5093196;28;20079;-56
2022/05/03 02:03:48;;;;;;;11.13;9.13;;;6.10;99.90;;;;;;5095912;28;20046;-57
2022/05/03 02:06:15;;;;;;;9.32;8.40;;;6.10;99.90;;;;;;5094864;28;20047;-56
2022/05/03 02:09:00;;;;;;;10.40;8.10;;;6.10;99.90;;;;;;5095841;28;20484;-57
2022/05/03 02:11:46;;;;;;;10.13;9.02;;;6.10;99.90;;;;;;5093648;28;20103;-56
2022/05/03 02:17:37;;;;;;;10.10;9.10;;;6.00;99.90;;;;;;5082310;28;20048;-56
2022/05/03 02:20:16;;;;;;;9.63;8.73;;;6.00;99.90;;;;;;5092896;28;20047;-57
2022/05/03 02:22:58;;;;;;;11.40;10.20;;;6.00;99.90;;;;;;5094624;28;20051;-57
2022/05/03 02:26:02;;;;;;;11.67;10.17;;;6.00;99.90;;;;;;5073776;28;20528;-57
2022/05/03 02:28:51;;;;;;;12.57;11.27;;;6.00;99.90;;;;;;5077342;28;20043;-58
2022/05/03 02:31:41;;;;;;;13.48;11.95;;;6.10;99.90;;;;;;5094484;28;20422;-57
2022/05/03 02:34:14;;;;;;;13.25;11.70;;;6.10;99.90;;;;;;5095707;28;20055;-57
2022/05/03 02:36:54;;;;;;;15.75;12.20;;;6.10;99.90;;;;;;5076423;28;20036;-58
2022/05/03 02:39:26;;;;;;;13.00;11.55;;;6.20;99.90;;;;;;5093341;28;20051;-57
2022/05/03 02:41:59;;;;;;;14.05;11.85;;;6.20;99.90;;;;;;5094129;28;20116;-57
2022/05/03 02:44:33;;;;;;;16.42;12.07;;;6.20;99.90;;;;;;5095061;28;20043;-58
2022/05/03 02:47:15;;;;;;;15.23;12.23;;;6.20;99.90;;;;;;5094504;28;20090;-57
2022/05/03 02:49:53;;;;;;;13.23;11.57;;;6.20;99.90;;;;;;5096441;28;20050;-57
2022/05/03 02:52:32;;;;;;;15.75;13.13;;;6.30;99.90;;;;;;5094580;28;20052;-57
2022/05/03 02:55:06;;;;;;;16.15;12.32;;;6.30;99.90;;;;;;5093895;28;20461;-57
2022/05/03 02:58:10;;;;;;;13.70;11.65;;;6.30;99.90;;;;;;5091623;28;20050;-57
2022/05/03 03:03:38;;;;;;;18.42;12.98;;;6.40;99.90;;;;;;5092656;28;19920;-57
2022/05/03 03:06:05;;;;;;;17.20;14.10;;;6.40;99.90;;;;;;5094949;28;20652;-58
2022/05/03 03:08:42;;;;;;;19.77;14.85;;;6.40;99.90;;;;;;5093677;28;20043;-57
2022/05/03 03:11:16;;;;;;;17.70;14.73;;;6.40;99.90;;;;;;5093503;28;20489;-57
2022/05/03 03:14:00;;;;;;;17.65;15.70;;;6.40;99.90;;;;;;5094406;28;20051;-57
2022/05/03 03:16:39;;;;;;;17.65;14.40;;;6.50;99.90;;;;;;5092997;28;20039;-57
2022/05/03 03:19:38;;;;;;;16.95;15.05;;;6.50;99.90;;;;;;5092057;28;20086;-57
2022/05/03 03:22:12;;;;;;;23.42;15.45;;;6.50;99.90;;;;;;5093184;28;20054;-56
2022/05/03 03:24:42;;;;;;;23.48;17.80;;;6.50;99.90;;;;;;5093621;28;20065;-56
2022/05/03 03:27:11;;;;;;;18.55;15.55;;;6.60;99.90;;;;;;5092011;28;20131;-56
2022/05/03 03:29:39;;;;;;;17.67;14.50;;;6.60;99.90;;;;;;5093727;28;20502;-57
2022/05/03 03:32:09;;;;;;;19.63;15.43;;;6.60;99.90;;;;;;5084393;28;20063;-58
2022/05/03 03:34:40;;;;;;;19.55;16.38;;;6.70;99.90;;;;;;5092658;28;20032;-56
2022/05/03 03:37:07;;;;;;;22.23;17.27;;;6.60;99.90;;;;;;5093614;28;20040;-56
2022/05/03 03:39:35;;;;;;;21.13;17.35;;;6.70;99.90;;;;;;5093158;28;20043;-56
2022/05/03 03:42:03;;;;;;;18.48;16.23;;;6.80;99.90;;;;;;5092983;28;20062;-57
2022/05/03 03:44:30;;;;;;;19.00;15.90;;;6.80;99.90;;;;;;5093077;28;20047;-56
2022/05/03 03:46:58;;;;;;;22.13;16.85;;;6.80;99.90;;;;;;5090998;28;20055;-58
2022/05/03 03:49:24;;;;;;;21.42;16.58;;;6.80;99.90;;;;;;5093777;28;20393;-58
2022/05/03 03:51:50;;;;;;;20.25;16.95;;;6.80;99.90;;;;;;5093224;28;20052;-57
2022/05/03 03:54:17;;;;;;;20.63;16.05;;;6.80;99.90;;;;;;5061714;28;20035;-57
2022/05/03 03:56:45;;;;;;;24.50;16.73;;;6.90;99.90;;;;;;5093847;28;20040;-57
2022/05/03 03:59:12;;;;;;;19.60;16.75;;;6.90;99.90;;;;;;5083221;28;20044;-56
2022/05/03 04:01:40;;;;;;;20.63;17.17;;;6.90;99.90;;;;;;5090663;28;20047;-57
2022/05/03 04:04:08;;;;;;;22.60;17.92;;;6.90;99.90;;;;;;5094732;28;20167;-55
2022/05/03 04:06:34;;;;;;;25.25;18.90;;;7.00;99.90;;;;;;5095202;28;20047;-57
2022/05/03 04:09:01;;;;;;;20.17;17.48;;;7.00;99.90;;;;;;5097447;28;20032;-57
2022/05/03 04:11:27;;;;;;;22.35;18.75;;;7.00;99.90;;;;;;5092719;28;20055;-56
2022/05/03 04:13:53;;;;;;;23.33;19.25;;;7.10;99.90;;;;;;5096954;28;20040;-56
2022/05/03 04:16:21;;;;;;;23.13;19.00;;;7.10;99.90;;;;;;5096072;28;20036;-56
2022/05/03 04:18:47;;;;;;;24.15;18.38;;;7.10;99.90;;;;;;5097761;28;20550;-58
2022/05/03 04:21:17;;;;;;;27.67;20.25;;;7.10;99.90;;;;;;5096974;28;20052;-57
2022/05/03 04:23:45;;;;;;;25.20;20.52;;;7.20;99.90;;;;;;5074769;28;20131;-58
2022/05/03 04:26:14;;;;;;;24.02;19.83;;;7.20;99.90;;;;;;5094066;28;20054;-57
2022/05/03 04:28:41;;;;;;;26.80;20.42;;;7.20;99.90;;;;;;5094376;28;20066;-56
2022/05/03 04:31:07;;;;;;;29.95;21.48;;;7.30;99.90;;;;;;5096050;28;20551;-57
2022/05/03 04:33:33;;;;;;;28.10;21.10;;;7.30;99.90;;;;;;5079409;28;20058;-57
2022/05/03 04:35:59;;;;;;;29.85;22.45;;;7.40;99.90;;;;;;5094116;28;20044;-57
2022/05/03 04:38:25;;;;;;;27.80;20.65;;;7.40;99.90;;;;;;5094176;28;20047;-59
2022/05/03 04:40:58;;;;;;;30.33;21.05;;;7.50;99.90;;;;;;5078577;28;20043;-57
2022/05/03 04:43:25;;;;;;;29.17;22.48;;;7.50;99.90;;;;;;5095476;28;20052;-56
2022/05/03 04:45:51;;;;;;;30.77;22.33;;;7.50;99.90;;;;;;5095542;28;20075;-58
2022/05/03 04:48:17;;;;;;;30.80;22.30;;;7.60;99.90;;;;;;5095521;28;20093;-58
2022/05/03 04:50:43;;;;;;;32.50;24.65;;;7.60;99.90;;;;;;5095967;28;20078;-56
2022/05/03 04:53:09;;;;;;;30.05;22.13;;;7.70;99.90;;;;;;5079460;28;20051;-59
2022/05/03 04:55:41;;;;;;;34.20;23.95;;;7.70;99.90;;;;;;5097145;28;20171;-58
2022/05/03 04:58:08;;;;;;;30.87;23.87;;;7.70;99.90;;;;;;5094930;28;20040;-57
2022/05/03 05:00:34;;;;;;;36.90;23.80;;;7.80;99.90;;;;;;5063577;28;20075;-58
2022/05/03 05:03:00;;;;;;;34.40;24.60;;;7.80;99.90;;;;;;5095242;28;20440;-58
2022/05/03 05:05:25;;;;;;;31.60;23.42;;;7.80;99.90;;;;;;5093857;28;20109;-58
2022/05/03 05:07:51;;;;;;;29.30;23.23;;;7.90;99.90;;;;;;5095197;28;20039;-58
2022/05/03 05:10:24;;;;;;;28.90;22.65;;;7.90;99.90;;;;;;5093340;28;20043;-57
2022/05/03 05:12:51;;;;;;;30.58;23.02;;;7.90;99.90;;;;;;5093636;28;20136;-58
2022/05/03 05:15:17;;;;;;;33.17;24.45;;;8.00;99.90;;;;;;5095132;28;20501;-58
2022/05/03 05:17:43;;;;;;;34.20;24.42;;;8.00;99.90;;;;;;5095701;28;20114;-58
2022/05/03 05:20:10;;;;;;;31.00;24.17;;;8.00;99.90;;;;;;5096895;28;20130;-58
2022/05/03 05:22:36;;;;;;;37.00;25.27;;;8.10;99.90;;;;;;5096061;28;20414;-57
2022/05/03 05:25:02;;;;;;;31.45;24.60;;;8.10;99.90;;;;;;5096428;28;20177;-57
2022/05/03 05:27:28;;;;;;;35.33;25.30;;;8.10;99.90;;;;;;5093817;28;20056;-57
2022/05/03 05:29:55;;;;;;;33.78;24.92;;;8.10;99.90;;;;;;5094077;28;20040;-58
2022/05/03 05:32:21;;;;;;;32.20;24.05;;;8.10;99.90;;;;;;5094526;28;20048;-58
2022/05/03 05:34:47;;;;;;;30.58;24.08;;;8.10;99.90;;;;;;5077819;28;20036;-57
2022/05/03 05:37:12;;;;;;;31.25;23.63;;;8.10;99.90;;;;;;5084896;28;20497;-57
2022/05/03 05:39:38;;;;;;;33.28;24.63;;;8.20;99.90;;;;;;5096481;28;20560;-57
2022/05/03 05:42:04;;;;;;;32.90;24.35;;;8.20;99.90;;;;;;5096998;28;20406;-58
2022/05/03 05:44:31;;;;;;;35.42;24.50;;;8.20;99.90;;;;;;5094476;28;20050;-57
2022/05/03 05:46:57;;;;;;;39.30;26.98;;;8.30;99.90;;;;;;5094765;28;20051;-58
2022/05/03 05:49:22;;;;;;;33.97;24.48;;;8.30;99.90;;;;;;5079813;28;20075;-58
2022/05/03 05:51:48;;;;;;;34.53;25.65;;;8.30;99.90;;;;;;5093103;28;20052;-57
2022/05/03 05:54:17;;;;;;;41.35;28.48;;;8.30;99.90;;;;;;5094293;28;20043;-57
2022/05/03 05:56:44;;;;;;;41.67;26.35;;;8.40;99.90;;;;;;5093898;28;20123;-57
2022/05/03 05:59:10;;;;;;;42.72;27.27;;;8.40;99.90;;;;;;5095410;28;20044;-57
2022/05/03 06:01:38;;;;;;;34.97;25.90;;;8.50;99.90;;;;;;5093863;28;20051;-58
2022/05/03 06:04:04;;;;;;;39.67;25.70;;;8.50;99.90;;;;;;5080303;28;20067;-58
2022/05/03 06:06:32;;;;;;;38.60;26.05;;;8.50;99.90;;;;;;5094654;28;20050;-59
2022/05/03 06:08:59;;;;;;;44.00;26.70;;;8.50;99.90;;;;;;5094218;28;20120;-58
2022/05/03 06:11:27;;;;;;;41.67;24.25;;;8.60;99.90;;;;;;5093993;28;20047;-58
2022/05/03 06:13:53;;;;;;;38.13;21.67;;;8.60;99.90;;;;;;5077601;28;20050;-57
2022/05/03 06:16:20;;;;;;;25.45;12.95;;;8.70;99.90;;;;;;5092927;28;20127;-58
2022/05/03 06:18:46;;;;;;;29.98;8.65;;;8.80;99.90;;;;;;5091576;28;20502;-56
2022/05/03 06:21:13;;;;;;;25.45;7.03;;;8.80;99.90;;;;;;5090933;28;20060;-57
2022/05/03 06:23:39;;;;;;;18.55;6.80;;;8.90;99.90;;;;;;5089584;28;20533;-58
2022/05/03 06:26:06;;;;;;;21.50;6.78;;;8.80;99.90;;;;;;5090677;28;20079;-58
2022/05/03 06:28:32;;;;;;;22.63;6.38;;;8.90;99.90;;;;;;5092576;28;20508;-57
2022/05/03 06:30:59;;;;;;;19.50;6.75;;;9.00;99.90;;;;;;5091937;28;20055;-58
2022/05/03 06:33:25;;;;;;;19.75;6.38;;;9.00;99.90;;;;;;5090007;28;20513;-57
2022/05/03 06:35:51;;;;;;;23.45;6.53;;;9.00;99.90;;;;;;5090691;28;20074;-58
2022/05/03 06:38:17;;;;;;;21.65;6.28;;;9.00;99.90;;;;;;5090527;28;20461;-58
2022/05/03 06:40:43;;;;;;;21.15;5.88;;;9.00;99.90;;;;;;5090364;28;20040;-57
2022/05/03 06:43:09;;;;;;;22.00;6.63;;;8.90;99.90;;;;;;5073558;28;20086;-58
2022/05/03 06:45:35;;;;;;;19.20;6.63;;;8.90;99.90;;;;;;5091480;28;20076;-57
2022/05/03 06:48:01;;;;;;;20.10;6.70;;;8.90;99.90;;;;;;5093546;28;20528;-59
2022/05/03 06:50:31;;;;;;;17.92;6.53;;;8.90;99.90;;;;;;5093915;28;20470;-58
2022/05/03 06:52:57;;;;;;;16.63;6.75;;;8.90;99.90;;;;;;5076252;28;20035;-57
2022/05/03 06:55:23;;;;;;;22.50;6.97;;;8.90;99.90;;;;;;5094386;28;20051;-58
2022/05/03 06:57:49;;;;;;;20.00;6.53;;;9.00;99.90;;;;;;5093608;28;20396;-57
2022/05/03 07:00:15;;;;;;;24.17;7.40;;;9.00;99.90;;;;;;5091925;28;20043;-57
2022/05/03 07:02:42;;;;;;;20.30;6.75;;;9.00;99.90;;;;;;5093401;28;20040;-57
2022/05/03 07:05:09;;;;;;;21.48;6.68;;;9.00;99.90;;;;;;5093812;28;20213;-57
2022/05/03 07:07:35;;;;;;;20.83;7.45;;;9.10;99.90;;;;;;5093690;28;20413;-57
2022/05/03 07:10:02;;;;;;;18.40;6.88;;;9.10;99.90;;;;;;5094453;28;20051;-58
2022/05/03 07:12:29;;;;;;;28.58;7.28;;;9.10;99.90;;;;;;5093029;28;20586;-58
2022/05/03 07:15:04;;;;;;;21.42;7.45;;;9.10;99.90;;;;;;5077582;28;20069;-57
2022/05/03 07:22:59;;;;;;;28.23;7.32;;;9.30;99.90;;;;;;5094399;28;20052;-57
2022/05/03 07:25:26;;;;;;;27.40;6.95;;;9.30;99.90;;;;;;5094182;28;20493;-58
2022/05/03 07:27:52;;;;;;;28.65;7.18;;;9.40;99.90;;;;;;5094484;28;20049;-59
2022/05/03 07:30:18;;;;;;;24.35;6.57;;;9.40;99.90;;;;;;5075108;28;20090;-57
2022/05/03 07:32:45;;;;;;;29.40;6.28;;;9.40;99.90;;;;;;5093420;28;20060;-58
2022/05/03 07:35:12;;;;;;;18.77;5.70;;;9.50;99.90;;;;;;5094661;28;20048;-57
2022/05/03 07:37:39;;;;;;;22.90;5.38;;;9.50;99.90;;;;;;5092314;28;20473;-58
2022/05/03 07:40:07;;;;;;;21.83;5.60;;;9.50;99.90;;;;;;5097842;28;20077;-57
2022/05/03 07:42:33;;;;;;;21.75;4.88;;;9.60;99.90;;;;;;5079451;28;20431;-57
2022/05/03 07:45:00;;;;;;;26.20;4.75;;;9.60;99.90;;;;;;5097226;28;20189;-57
2022/05/03 07:47:26;;;;;;;22.83;5.22;;;9.60;99.90;;;;;;5079658;28;20039;-58
2022/05/03 07:49:53;;;;;;;17.55;5.00;;;9.70;99.90;;;;;;5097495;28;20036;-56
2022/05/03 07:52:19;;;;;;;20.90;5.88;;;9.70;99.90;;;;;;5097381;28;20406;-58
2022/05/03 07:54:45;;;;;;;17.63;4.40;;;9.70;99.90;;;;;;5097442;28;20047;-57
2022/05/03 07:57:12;;;;;;;22.17;4.82;;;9.80;99.90;;;;;;5095954;28;20510;-57
2022/05/03 07:59:42;;;;;;;14.63;4.82;;;9.90;99.90;;;;;;5098463;28;20055;-58
2022/05/03 08:02:08;;;;;;;18.30;4.60;;;9.90;99.90;;;;;;5097409;28;20047;-57
2022/05/03 08:04:34;;;;;;;18.98;4.68;;;10.00;99.90;;;;;;5097409;28;20940;-58
2022/05/03 08:07:00;;;;;;;21.40;4.68;;;10.10;99.90;;;;;;5097765;28;20087;-57
2022/05/03 08:09:27;;;;;;;21.38;4.90;;;10.20;99.90;;;;;;5069989;28;20476;-58
2022/05/03 08:11:53;;;;;;;20.88;4.70;;;10.20;99.90;;;;;;5096959;28;20039;-58
2022/05/03 08:14:20;;;;;;;21.63;4.97;;;10.20;99.90;;;;;;5078657;28;20857;-59
2022/05/03 08:16:46;;;;;;;18.05;4.60;;;10.30;99.90;;;;;;5095533;28;20070;-57
2022/05/03 08:19:12;;;;;;;18.35;4.68;;;10.30;99.90;;;;;;5097690;28;20040;-59
2022/05/03 08:21:39;;;;;;;18.83;4.03;;;10.30;99.90;;;;;;5096722;28;20082;-58
2022/05/03 08:24:05;;;;;;;22.30;4.82;;;10.40;99.90;;;;;;5096735;28;20370;-60
2022/05/03 08:26:33;;;;;;;17.17;4.43;;;10.40;99.90;;;;;;5079570;28;20051;-58
2022/05/03 08:29:00;;;;;;;21.33;5.18;;;10.40;99.90;;;;;;5092808;28;20139;-58
2022/05/03 08:31:26;;;;;;;21.00;4.50;;;10.40;99.90;;;;;;5094952;28;20055;-58
2022/05/03 08:33:52;;;;;;;19.95;4.68;;;10.40;99.90;;;;;;5075835;28;20154;-59
2022/05/03 08:36:18;;;;;;;21.92;5.25;;;10.40;99.90;;;;;;5095014;28;20110;-59
2022/05/03 08:44:31;;;;;;;20.98;4.30;;;10.50;99.90;;;;;;4975899;28;20054;-58
2022/05/03 08:46:59;;;;;;;24.65;3.90;;;10.50;99.90;;;;;;5072792;28;20063;-56
2022/05/03 08:49:44;;;;;;;23.63;4.22;;;10.60;99.90;;;;;;5097047;28;20044;-58
2022/05/03 08:52:14;;;;;;;19.48;4.13;;;10.60;99.90;;;;;;5078626;28;20036;-58
2022/05/03 08:54:41;;;;;;;20.40;4.25;;;10.60;99.90;;;;;;5095235;28;20422;-57
2022/05/03 08:57:08;;;;;;;18.17;3.72;;;10.70;99.90;;;;;;5096266;28;20485;-59
2022/05/03 08:59:37;;;;;;;25.77;5.57;;;10.70;99.90;;;;;;5094362;28;20048;-58
2022/05/03 09:02:04;;;;;;;16.90;4.03;;;10.70;99.90;;;;;;5093101;28;20132;-59
2022/05/03 09:04:31;;;;;;;11.05;3.10;;;10.90;99.90;;;;;;5083969;28;20615;-59
2022/05/03 09:06:57;;;;;;;11.20;3.28;;;11.00;99.90;;;;;;5094482;28;20364;-57
2022/05/03 09:09:24;;;;;;;19.10;3.25;;;11.10;99.90;;;;;;5095029;28;20053;-58
2022/05/03 09:11:53;;;;;;;14.65;3.33;;;11.10;99.90;;;;;;5096047;28;20500;-58
2022/05/03 09:14:42;;;;;;;15.15;3.55;;;11.30;99.90;;;;;;5096195;28;20056;-58
2022/05/03 09:17:08;;;;;;;16.05;3.60;;;11.30;99.90;;;;;;5079827;28;20512;-58
2022/05/03 09:19:34;;;;;;;16.40;3.30;;;11.40;99.90;;;;;;5095946;28;20044;-59
2022/05/03 09:25:02;;;;;;;14.43;3.42;;;11.50;99.90;;;;;;5096630;28;20055;-59
2022/05/03 09:27:28;;;;;;;10.97;3.20;;;11.60;99.90;;;;;;5093721;27;20114;-58
2022/05/03 09:30:08;;;;;;;14.07;3.47;;;11.70;99.90;;;;;;5084573;28;20405;-58
2022/05/03 09:32:38;;;;;;;10.40;2.88;;;11.80;99.90;;;;;;5092362;28;20539;-58
2022/05/03 09:35:06;;;;;;;8.70;2.70;;;11.90;99.90;;;;;;5093007;28;20133;-58
2022/05/03 09:37:42;;;;;;;9.00;2.72;;;12.00;99.90;;;;;;5092723;28;20043;-59
2022/05/03 09:40:10;;;;;;;11.52;3.00;;;12.10;99.90;;;;;;5077251;28;20052;-58
2022/05/03 09:42:37;;;;;;;7.22;2.50;;;12.20;99.90;;;;;;5074421;28;20409;-58
2022/05/03 09:45:05;;;;;;;12.30;2.83;;;12.20;99.50;;;;;;5094397;28;20123;-57
2022/05/03 09:47:33;;;;;;;14.23;3.30;;;12.20;99.60;;;;;;5095698;28;20044;-58
2022/05/03 09:50:00;;;;;;;12.07;2.95;;;12.30;99.40;;;;;;5094001;28;20503;-58
2022/05/03 09:52:28;;;;;;;13.10;2.90;;;12.40;98.90;;;;;;5084746;28;20497;-57
2022/05/03 09:55:06;;;;;;;11.05;2.75;;;12.50;98.40;;;;;;5092792;28;20397;-58
2022/05/03 09:57:38;;;;;;;13.52;3.05;;;12.60;98.60;;;;;;5092016;28;20059;-58
2022/05/03 10:00:09;;;;;;;8.48;2.65;;;12.70;97.80;;;;;;5092757;28;20052;-59
2022/05/03 10:02:40;;;;;;;7.90;2.75;;;12.80;97.60;;;;;;5093650;28;20118;-58
2022/05/03 10:05:07;;;;;;;15.13;3.58;;;12.90;97.20;;;;;;5097385;28;20078;-59
2022/05/03 10:07:35;;;;;;;18.20;2.75;;;12.90;96.70;;;;;;5093577;28;20035;-58
2022/05/03 10:10:07;;;;;;;16.00;2.83;;;12.90;95.80;;;;;;5093290;28;20040;-58
2022/05/03 10:12:36;;;;;;;11.13;2.57;;;12.90;95.20;;;;;;5094279;28;20047;-58
2022/05/03 10:15:03;;;;;;;9.77;2.80;;;12.90;95.30;;;;;;5058899;28;20324;-60
2022/05/03 10:20:40;;;;;;;8.77;2.67;;;13.00;95.50;;;;;;5094793;28;20050;-59
2022/05/03 10:23:30;;;;;;;9.70;2.67;;;13.10;94.60;;;;;;5093375;28;20390;-59
2022/05/03 10:26:01;;;;;;;10.75;2.60;;;13.10;94.40;;;;;;5091740;28;20070;-57
2022/05/03 10:29:03;;;;;;;10.43;2.45;;;13.20;94.00;;;;;;5094423;28;20082;-59
2022/05/03 10:31:29;;;;;;;8.80;2.22;;;13.30;93.40;;;;;;5074549;28;20378;-58
2022/05/03 10:33:56;;;;;;;8.07;2.10;;;13.30;93.20;;;;;;5094218;28;20048;-58
2022/05/03 10:36:31;;;;;;;10.85;2.15;;;13.40;93.00;;;;;;5076203;28;20139;-58
2022/05/03 10:39:05;;;;;;;9.40;2.20;;;13.50;91.90;;;;;;5092520;28;20642;-58
2022/05/03 10:41:31;;;;;;;10.70;2.30;;;13.70;92.30;;;;;;5093902;28;20909;-58
2022/05/03 10:43:57;;;;;;;9.93;2.67;;;13.90;92.30;;;;;;5092993;28;20044;-59
2022/05/03 10:46:24;;;;;;;11.95;2.67;;;14.00;91.30;;;;;;5091766;28;20705;-58
2022/05/03 10:49:11;;;;;;;6.68;2.33;;;14.00;90.40;;;;;;5076886;28;20039;-59
2022/05/03 10:51:38;;;;;;;7.82;2.03;;;13.90;87.30;;;;;;5092840;28;20572;-59
2022/05/03 10:54:06;;;;;;;11.43;2.25;;;13.80;88.60;;;;;;5091886;28;20083;-59
2022/05/03 10:56:32;;;;;;;12.75;2.58;;;13.70;87.10;;;;;;5077614;28;20036;-59
2022/05/03 10:59:15;;;;;;;6.82;2.42;;;13.70;87.40;;;;;;5093726;28;20089;-59
2022/05/03 11:01:53;;;;;;;;;;;13.80;87.10;;;;;;5093030;28;20055;-59
2022/05/03 11:04:20;;;;;;;7.68;2.40;;;13.80;87.70;;;;;;5092693;28;19920;-58
2022/05/03 11:06:49;;;;;;;7.70;2.17;;;13.80;88.40;;;;;;5093579;28;20122;-59
2022/05/03 11:09:33;;;;;;;11.68;2.40;;;13.90;86.90;;;;;;5095085;28;20050;-58
2022/05/03 11:12:05;;;;;;;7.88;2.03;;;14.00;86.40;;;;;;5089889;28;20184;-59
2022/05/03 11:14:30;;;;;;;10.95;2.00;;;14.00;84.50;;;;;;5075792;28;20048;-58
2022/05/03 11:17:03;;;;;;;8.63;2.00;;;14.00;84.40;;;;;;5091257;28;20043;-59
2022/05/03 11:19:31;;;;;;;7.72;2.40;;;14.20;83.60;;;;;;5090440;28;20181;-59
2022/05/03 11:21:58;;;;;;;6.00;2.10;;;14.10;82.40;;;;;;5082544;28;20200;-59
2022/05/03 11:24:32;;;;;;;7.05;1.95;;;14.20;81.50;;;;;;5092602;28;20039;-59
2022/05/03 11:27:02;;;;;;;11.77;2.20;;;14.20;81.30;;;;;;5091265;28;20158;-58
2022/05/03 11:29:39;;;;;;;9.68;2.03;;;14.30;81.80;;;;;;5089771;28;20624;-59
2022/05/03 11:32:08;;;;;;;7.10;2.00;;;14.40;80.40;;;;;;5091482;28;20121;-59
2022/05/03 11:34:36;;;;;;;8.75;1.70;;;14.30;79.00;;;;;;5091294;28;20054;-59
2022/05/03 11:37:03;;;;;;;8.82;2.72;;;14.20;77.70;;;;;;5093647;28;20070;-58
2022/05/03 11:39:30;;;;;;;6.10;2.20;;;14.10;77.80;;;;;;5093874;28;20044;-58
2022/05/03 11:41:57;;;;;;;7.05;2.30;;;14.10;78.50;;;;;;5076701;28;20100;-60
2022/05/03 11:44:23;;;;;;;6.32;2.10;;;14.30;78.90;;;;;;5074927;28;20357;-58
2022/05/03 11:46:49;;;;;;;6.97;2.20;;;14.50;78.80;;;;;;5092258;28;20397;-59
2022/05/03 11:49:17;;;;;;;10.13;2.15;;;14.60;76.00;;;;;;5094676;28;20048;-59
2022/05/03 11:57:27;;;;;;;9.90;2.38;;;15.00;75.20;;;;;;5092784;28;20040;-58
2022/05/03 11:59:57;;;;;;;8.00;2.35;;;15.00;75.10;;;;;;5091926;28;20129;-58
2022/05/03 12:02:31;;;;;;;9.82;2.47;;;15.10;75.00;;;;;;5093425;28;20044;-58
2022/05/03 12:05:11;;;;;;;5.78;1.85;;;15.30;76.00;;;;;;5093789;28;20047;-58
2022/05/03 12:07:41;;;;;;;10.32;2.35;;;15.50;74.20;;;;;;5093417;28;20486;-60
2022/05/03 12:10:24;;;;;;;10.00;2.03;;;15.70;73.30;;;;;;5075165;28;20044;-58
2022/05/03 12:13:12;;;;;;;9.20;2.05;;;15.60;72.10;;;;;;5074698;28;20065;-59
2022/05/03 12:15:47;;;;;;;4.97;1.80;;;15.50;71.80;;;;;;5093459;28;20052;-59
2022/05/03 12:18:15;;;;;;;6.97;2.17;;;15.70;71.60;;;;;;5093148;28;20098;-59
2022/05/03 12:20:43;;;;;;;8.07;2.17;;;15.90;72.40;;;;;;5093279;28;20051;-59
2022/05/03 12:23:16;;;;;;;7.25;1.98;;;16.20;70.60;;;;;;5095202;28;20470;-60
2022/05/03 12:25:44;;;;;;;11.35;2.63;;;16.20;69.00;;;;;;5097347;28;20100;-58
2022/05/03 12:28:10;;;;;;;10.65;2.50;;;16.10;69.00;;;;;;5095386;28;20051;-59
2022/05/03 12:30:36;;;;;;;12.70;1.95;;;15.90;68.30;;;;;;5077179;28;20055;-59
2022/05/03 12:33:04;;;;;;;11.20;3.03;;;15.70;69.00;;;;;;5097127;28;20091;-58
2022/05/03 12:35:32;;;;;;;7.93;2.30;;;15.90;70.80;;;;;;5096337;28;20042;-59
2022/05/03 12:38:11;;;;;;;8.32;2.42;;;16.20;70.70;;;;;;5097185;28;20052;-58
2022/05/03 12:40:52;;;;;;;6.10;1.73;;;16.60;69.30;;;;;;5097126;28;20052;-58
2022/05/03 12:43:29;;;;;;;11.43;2.50;;;16.90;68.90;;;;;;5079760;28;20043;-59
2022/05/03 12:46:02;;;;;;;8.77;2.22;;;17.10;67.20;;;;;;5068902;28;20126;-59
2022/05/03 12:48:31;;;;;;;10.23;1.98;;;17.30;67.20;;;;;;5097346;28;20062;-59
2022/05/03 12:50:58;;;;;;;10.55;2.10;;;17.40;64.60;;;;;;5098082;28;20409;-58
2022/05/03 12:53:29;;;;;;;9.43;2.47;;;17.40;63.70;;;;;;5076052;28;20040;-59
2022/05/03 12:55:56;;;;;;;13.80;2.38;;;17.20;62.90;;;;;;5079076;28;20492;-59
2022/05/03 12:58:24;;;;;;;8.68;1.90;;;17.10;64.60;;;;;;5094862;28;20112;-59
2022/05/03 13:00:53;;;;;;;16.52;2.55;;;16.90;63.20;;;;;;5093141;28;20055;-59
2022/05/03 13:03:23;;;;;;;7.90;2.28;;;16.70;63.90;;;;;;5094083;28;20159;-59
2022/05/03 13:05:50;;;;;;;10.25;2.42;;;16.70;65.70;;;;;;5094125;28;20052;-59
2022/05/03 13:08:17;;;;;;;8.35;2.10;;;16.70;64.50;;;;;;5084832;28;20165;-59
2022/05/03 13:10:44;;;;;;;11.02;2.20;;;16.60;64.90;;;;;;5078731;28;20117;-60
2022/05/03 13:13:10;;;;;;;7.35;2.15;;;16.80;65.40;;;;;;5097023;28;20174;-59
2022/05/03 13:15:38;;;;;;;11.55;2.08;;;17.10;64.70;;;;;;5093299;28;20047;-59
2022/05/03 13:18:06;;;;;;;9.93;2.55;;;17.40;63.70;;;;;;5094144;28;20047;-59
2022/05/03 13:20:32;;;;;;;9.07;2.75;;;17.30;62.80;;;;;;5094580;28;20122;-58
2022/05/03 13:22:58;;;;;;;8.80;2.53;;;17.00;61.80;;;;;;5095132;28;20130;-60
2022/05/03 13:25:24;;;;;;;6.90;2.17;;;16.70;62.30;;;;;;5096018;28;20044;-59
2022/05/03 13:27:51;;;;;;;14.45;2.92;;;16.50;63.00;;;;;;5094548;28;20048;-60
2022/05/03 13:30:17;;;;;;;6.93;2.00;;;16.20;63.00;;;;;;5079118;28;20047;-58
2022/05/03 13:32:43;;;;;;;9.70;2.30;;;16.20;63.70;;;;;;5095844;28;20056;-59
2022/05/03 13:35:10;;;;;;;9.43;2.45;;;16.40;65.40;;;;;;5094270;28;20524;-58
2022/05/03 13:40:29;;;;;;;14.52;2.50;;;17.30;64.20;;;;;;5096158;28;20039;-60